createdAt,value
2023-03-29T00:03:33.958Z,97226.31
2023-03-29T00:08:25.779Z,97229.16
2023-03-29T00:13:18.196Z,97211.03
2023-03-29T00:18:09.927Z,97221.13
2023-03-29T00:23:01.604Z,97194.28
2023-03-29T00:27:53.313Z,97223.56
2023-03-29T00:32:45.847Z,97206.31
2023-03-29T00:37:37.982Z,97210.56
2023-03-29T00:42:30.622Z,97190.94
2023-03-29T00:47:27.834Z,97193.78
2023-03-29T00:52:22.554Z,97196.63
2023-03-29T00:57:18.916Z,97186.25
2023-03-29T01:02:11.238Z,97180.09
2023-03-29T01:07:49.302Z,97195.59
2023-03-29T01:12:47.838Z,97195.59
2023-03-29T01:17:43.266Z,97190.41
2023-03-29T01:23:13.881Z,97120.69
2023-03-29T01:28:14.908Z,97165.22
2023-03-29T01:33:14.525Z,97162.03
2023-03-29T01:38:13.303Z,97176.88
2023-03-29T01:43:34.204Z,97161.72
2023-03-29T01:48:35.242Z,97146.44
2023-03-29T01:53:35.996Z,97144.84
2023-03-29T01:58:35.913Z,97123.94
2023-03-29T02:03:31.173Z,97142.38
2023-03-29T02:08:24.534Z,97131.53
2023-03-29T02:13:17.931Z,97112.28
2023-03-29T02:18:09.770Z,97121.53
2023-03-29T02:23:14.245Z,97128.94
2023-03-29T02:28:07.325Z,97108.72
2023-03-29T02:33:13.895Z,97122.38
2023-03-29T02:38:11.260Z,97130.44
2023-03-29T02:43:04.871Z,97116.63
2023-03-29T02:48:03.426Z,97115.22
2023-03-29T02:53:05.471Z,97108.03
2023-03-29T02:57:57.936Z,97102.03
2023-03-29T03:02:50.860Z,97099.00
2023-03-29T03:07:43.290Z,97113.88
2023-03-29T03:12:35.012Z,97081.53
2023-03-29T03:17:26.694Z,97101.97
2023-03-29T03:22:18.409Z,97080.28
2023-03-29T03:27:10.075Z,97072.22
2023-03-29T03:32:02.057Z,97064.22
2023-03-29T03:36:54.543Z,97074.22
2023-03-29T03:41:46.341Z,97083.66
2023-03-29T03:46:38.107Z,97062.09
2023-03-29T03:51:30.059Z,97074.47
2023-03-29T03:56:21.773Z,97101.00
2023-03-29T04:01:13.590Z,97080.13
2023-03-29T04:11:13.760Z,97089.34
2023-03-29T04:16:07.571Z,97079.56
2023-03-29T04:20:59.527Z,97059.47
2023-03-29T04:25:56.620Z,97093.94
2023-03-29T04:30:48.881Z,97082.53
2023-03-29T04:35:40.693Z,97050.81
2023-03-29T04:40:33.529Z,97059.88
2023-03-29T04:45:25.712Z,97071.75
2023-03-29T04:50:17.745Z,97087.59
2023-03-29T05:00:22.131Z,97049.88
2023-03-29T05:05:14.247Z,97037.63
2023-03-29T05:10:12.101Z,97045.09
2023-03-29T05:15:05.527Z,97068.63
2023-03-29T05:19:57.451Z,97072.41
2023-03-29T05:24:50.386Z,97056.72
2023-03-29T05:29:42.472Z,97047.72
2023-03-29T05:34:34.128Z,97061.97
2023-03-29T05:39:25.953Z,97082.06
2023-03-29T05:44:17.710Z,97091.31
2023-03-29T05:49:09.389Z,97101.22
2023-03-29T05:54:01.822Z,97097.41
2023-03-29T05:58:57.178Z,97075.56
2023-03-29T06:03:49.256Z,97068.56
2023-03-29T06:08:41.679Z,97054.28
2023-03-29T06:13:34.389Z,97048.47
2023-03-29T06:23:34.726Z,97054.09
2023-03-29T06:28:27.141Z,97056.69
2023-03-29T06:33:24.811Z,97062.34
2023-03-29T06:38:17.134Z,97063.75
2023-03-29T06:43:09.027Z,97060.38
2023-03-29T06:48:02.236Z,97059.16
2023-03-29T06:52:54.050Z,97062.59
2023-03-29T06:57:45.719Z,97065.78
2023-03-29T07:02:38.968Z,97067.22
2023-03-29T07:07:43.957Z,97078.28
2023-03-29T07:12:36.027Z,97080.06
2023-03-29T07:17:35.701Z,97086.69
2023-03-29T07:22:27.476Z,97077.41
2023-03-29T07:27:21.394Z,97092.03
2023-03-29T07:32:13.408Z,97081.47
2023-03-29T07:37:06.417Z,97086.75
2023-03-29T07:41:58.432Z,97086.66
2023-03-29T07:46:50.088Z,97087.81
2023-03-29T07:51:42.148Z,97094.97
2023-03-29T07:56:35.987Z,97088.16
2023-03-29T08:01:27.782Z,97083.50
2023-03-29T08:06:19.491Z,97093.97
2023-03-29T08:11:11.232Z,97094.69
2023-03-29T08:16:03.345Z,97108.25
2023-03-29T08:20:57.009Z,97106.13
2023-03-29T08:26:01.307Z,97101.03
2023-03-29T08:30:53.607Z,97111.75
2023-03-29T08:35:45.616Z,97108.72
2023-03-29T08:45:51.497Z,97120.91
2023-03-29T09:06:22.331Z,97097.94
2023-03-29T09:17:06.167Z,97098.38
2023-03-29T09:22:08.446Z,97106.16
2023-03-29T09:27:33.193Z,97095.16
2023-03-29T09:32:37.858Z,97090.09
2023-03-29T09:42:43.654Z,97069.59
2023-03-29T09:47:59.479Z,97057.63
2023-03-29T09:52:51.749Z,97066.84
2023-03-29T09:57:44.557Z,97066.81
2023-03-29T10:02:45.793Z,97073.06
2023-03-29T10:07:54.496Z,97076.53
2023-03-29T10:12:58.742Z,97076.50
2023-03-29T10:18:06.838Z,97081.78
2023-03-29T10:28:18.599Z,97074.31
2023-03-29T10:33:33.537Z,97070.44
2023-03-29T10:54:09.908Z,97066.44
2023-03-29T10:59:27.156Z,97056.50
2023-03-29T11:10:10.058Z,97056.56
2023-03-29T11:15:23.088Z,97046.91
2023-03-29T11:37:51.861Z,97033.59
2023-03-29T11:42:50.882Z,97019.56
2023-03-29T11:47:47.256Z,97027.81
2023-03-29T11:53:29.628Z,97013.31
2023-03-29T11:58:32.717Z,97015.34
2023-03-29T12:09:39.582Z,97008.56
2023-03-29T12:15:11.090Z,97000.06
2023-03-29T12:20:29.492Z,96986.72
2023-03-29T12:25:38.445Z,96983.25
2023-03-29T12:31:05.775Z,97000.31
2023-03-29T12:36:38.117Z,96977.03
2023-03-29T12:41:37.794Z,96981.84
2023-03-29T12:46:34.832Z,96977.09
2023-03-29T12:51:33.311Z,96975.53
2023-03-29T12:56:55.534Z,96956.94
2023-03-29T13:02:35.667Z,96960.97
2023-03-29T13:12:44.347Z,96947.66
2023-03-29T13:17:56.928Z,96940.47
2023-03-29T13:23:18.160Z,96933.91
2023-03-29T13:28:34.744Z,96928.59
2023-03-29T13:34:06.912Z,96927.97
2023-03-29T13:39:07.759Z,96925.91
2023-03-29T13:44:00.170Z,96925.41
2023-03-29T13:49:01.002Z,96911.28
2023-03-29T13:54:28.328Z,96909.19
2023-03-29T13:59:31.898Z,96897.19
2023-03-29T14:04:30.395Z,96907.22
2023-03-29T14:09:30.075Z,96902.00
2023-03-29T14:14:25.962Z,96895.06
2023-03-29T14:19:31.902Z,96885.41
2023-03-29T14:29:45.267Z,96892.81
2023-03-29T14:39:47.762Z,96883.41
2023-03-29T14:44:40.346Z,96884.25
2023-03-29T14:49:34.021Z,96866.41
2023-03-29T14:54:32.959Z,96870.69
2023-03-29T14:59:54.851Z,96866.91
2023-03-29T15:05:00.609Z,96852.72
2023-03-29T15:09:57.386Z,96853.50
2023-03-29T15:14:52.598Z,96856.28
2023-03-29T15:19:44.607Z,96855.56
2023-03-29T15:24:59.888Z,96849.78
2023-03-29T15:30:03.932Z,96849.00
2023-03-29T15:35:05.794Z,96837.34
2023-03-29T15:39:58.101Z,96836.81
2023-03-29T15:44:56.603Z,96839.25
2023-03-29T15:54:54.058Z,96839.00
2023-03-29T15:59:46.120Z,96836.41
2023-03-29T16:04:37.804Z,96840.97
2023-03-29T16:09:29.494Z,96840.69
2023-03-29T16:14:27.916Z,96843.09
2023-03-29T16:19:20.358Z,96854.78
2023-03-29T16:24:20.009Z,96847.06
2023-03-29T16:29:19.565Z,96849.75
2023-03-29T16:34:19.809Z,96843.91
2023-03-29T16:39:13.297Z,96839.69
2023-03-29T16:44:05.367Z,96836.22
2023-03-29T16:48:57.963Z,96843.38
2023-03-29T16:53:51.323Z,96847.09
2023-03-29T16:58:43.670Z,96849.66
2023-03-29T17:08:50.465Z,96852.53
2023-03-29T17:23:55.510Z,96839.50
2023-03-29T17:28:48.246Z,96839.97
2023-03-29T17:43:59.854Z,96839.81
2023-03-29T17:48:51.894Z,96841.38
2023-03-29T18:03:56.744Z,96846.78
2023-03-29T18:08:48.458Z,96843.81
2023-03-29T18:13:40.230Z,96823.19
2023-03-29T18:18:33.253Z,96820.94
2023-03-29T18:23:25.143Z,96810.09
2023-03-29T18:28:18.362Z,96809.00
2023-03-29T18:33:10.399Z,96835.72
2023-03-29T18:38:03.197Z,96846.75
2023-03-29T18:42:54.879Z,96851.56
2023-03-29T18:47:46.748Z,96851.00
2023-03-29T18:52:38.824Z,96878.84
2023-03-29T18:57:30.751Z,96900.03
2023-03-29T19:02:22.610Z,96910.00
2023-03-29T19:07:14.405Z,96923.34
2023-03-29T19:12:06.463Z,96931.19
2023-03-29T19:16:58.124Z,96943.31
2023-03-29T19:21:50.125Z,96944.66
2023-03-29T19:26:48.081Z,96934.88
2023-03-29T19:31:40.038Z,96920.97
2023-03-29T19:36:32.180Z,96908.97
2023-03-29T19:41:23.877Z,96908.56
2023-03-29T19:46:15.823Z,96901.47
2023-03-29T19:51:08.018Z,96880.25
2023-03-29T19:56:01.918Z,96867.47
2023-03-29T20:00:57.936Z,96852.69
2023-03-29T20:05:50.784Z,96865.00
2023-03-29T20:10:42.656Z,96844.78
2023-03-29T20:15:34.908Z,96851.94
2023-03-29T20:20:28.253Z,96844.59
2023-03-29T20:25:21.125Z,96821.19
2023-03-29T20:30:14.221Z,96817.00
2023-03-29T20:35:06.518Z,96822.06
2023-03-29T20:39:59.302Z,96819.22
2023-03-29T20:44:53.750Z,96820.00
2023-03-29T20:49:45.820Z,96811.19
2023-03-29T20:54:38.614Z,96819.41
2023-03-29T20:59:30.771Z,96803.06
2023-03-29T21:04:23.160Z,96805.28
2023-03-29T21:09:16.223Z,96800.03
2023-03-29T21:14:09.083Z,96793.94
2023-03-29T21:19:00.920Z,96789.63
2023-03-29T21:23:52.598Z,96801.22
2023-03-29T21:28:44.306Z,96798.38
2023-03-29T21:33:36.130Z,96791.91
2023-03-29T21:38:28.516Z,96781.34
2023-03-29T21:43:20.952Z,96785.59
2023-03-29T21:48:12.863Z,96786.69
2023-03-29T21:53:04.555Z,96782.94
2023-03-29T21:57:57.148Z,96781.41
2023-03-29T22:07:58.593Z,96762.84
2023-03-29T22:12:51.836Z,96772.38
2023-03-29T22:17:43.561Z,96763.44
2023-03-29T22:22:35.273Z,96767.63
2023-03-29T22:27:26.950Z,96757.78
2023-03-29T22:32:18.671Z,96749.16
2023-03-29T22:37:10.601Z,96740.84
2023-03-29T22:42:02.427Z,96738.28
2023-03-29T22:52:01.274Z,96748.28
2023-03-29T22:56:52.976Z,96744.59
2023-03-29T23:06:50.510Z,96746.41
2023-03-29T23:11:42.426Z,96740.25
2023-03-29T23:21:40.746Z,96746.00
2023-03-29T23:26:33.791Z,96741.34
2023-03-29T23:31:25.564Z,96740.56
2023-03-29T23:36:19.159Z,96732.91
2023-03-29T23:41:12.723Z,96748.97
2023-03-29T23:46:11.936Z,96733.00
2023-03-29T23:51:05.294Z,96732.88
2023-03-29T23:56:00.253Z,96718.53
